Guaxupe, Brazil
Current Conditions -  °F | °C
As of 6:00 AM on Sunday 21 Dec 2014 (Local Time) from SBYS Reporting Station
Clear Clear  
Wind Chill: 72°   Ceiling: Unl
Heat Index: 72°   Visibility: 6mi
Dew Point: 70°   Wind: 1mph
Humidity: 94%   Direction: 20°NNE
Pressure: 29.88"   Gusts: NA
Location:  21.31°S, 46.71°W
Report Text: SBYS 210800Z 02001KT CAVOK 22/21 Q1012
Loading
Personal Weather Stations






























Interactive Weather Map New forecast layout! Learn more

10-Day Weather Forecast

Advertisements
Track Severe Weather on mobile